sensor_id;sensor_type;location;lat;lon;timestamp;P1;durP1;ratioP1;P2;durP2;ratioP2
80272;SDS011;69574;45.328;9.598;2023-11-21T00:00:09;59.25;;;36.70;;
80272;SDS011;69574;45.328;9.598;2023-11-21T00:02:37;56.03;;;37.22;;
80272;SDS011;69574;45.328;9.598;2023-11-21T00:05:07;58.85;;;37.05;;
80272;SDS011;69574;45.328;9.598;2023-11-21T00:07:33;55.10;;;36.58;;
80272;SDS011;69574;45.328;9.598;2023-11-21T00:09:59;56.75;;;36.42;;
80272;SDS011;69574;45.328;9.598;2023-11-21T00:12:24;58.45;;;36.03;;
80272;SDS011;69574;45.328;9.598;2023-11-21T00:14:50;55.70;;;36.50;;
80272;SDS011;69574;45.328;9.598;2023-11-21T00:17:16;58.45;;;38.28;;
80272;SDS011;69574;45.328;9.598;2023-11-21T00:19:42;60.15;;;39.58;;
80272;SDS011;69574;45.328;9.598;2023-11-21T00:22:09;59.58;;;38.05;;
80272;SDS011;69574;45.328;9.598;2023-11-21T00:24:35;59.88;;;38.33;;
80272;SDS011;69574;45.328;9.598;2023-11-21T00:27:01;60.13;;;39.00;;
80272;SDS011;69574;45.328;9.598;2023-11-21T00:29:27;61.03;;;38.40;;
80272;SDS011;69574;45.328;9.598;2023-11-21T00:31:52;54.20;;;35.78;;
80272;SDS011;69574;45.328;9.598;2023-11-21T00:34:18;60.47;;;39.53;;
80272;SDS011;69574;45.328;9.598;2023-11-21T00:36:45;82.78;;;47.20;;
80272;SDS011;69574;45.328;9.598;2023-11-21T00:39:12;66.00;;;41.83;;
80272;SDS011;69574;45.328;9.598;2023-11-21T00:41:38;66.07;;;41.70;;
80272;SDS011;69574;45.328;9.598;2023-11-21T00:44:04;57.05;;;37.00;;
80272;SDS011;69574;45.328;9.598;2023-11-21T00:46:29;56.95;;;37.38;;
80272;SDS011;69574;45.328;9.598;2023-11-21T00:48:55;55.05;;;36.78;;
80272;SDS011;69574;45.328;9.598;2023-11-21T00:51:21;58.15;;;37.70;;
80272;SDS011;69574;45.328;9.598;2023-11-21T00:53:47;58.85;;;36.40;;
80272;SDS011;69574;45.328;9.598;2023-11-21T00:56:14;60.05;;;37.13;;
80272;SDS011;69574;45.328;9.598;2023-11-21T00:58:40;59.45;;;36.78;;
80272;SDS011;69574;45.328;9.598;2023-11-21T01:01:11;62.70;;;37.80;;
80272;SDS011;69574;45.328;9.598;2023-11-21T01:03:37;56.28;;;35.92;;
80272;SDS011;69574;45.328;9.598;2023-11-21T01:06:03;56.55;;;37.40;;
80272;SDS011;69574;45.328;9.598;2023-11-21T01:08:32;57.92;;;38.92;;
80272;SDS011;69574;45.328;9.598;2023-11-21T01:10:58;59.35;;;37.63;;
80272;SDS011;69574;45.328;9.598;2023-11-21T01:13:28;57.75;;;37.05;;
80272;SDS011;69574;45.328;9.598;2023-11-21T01:15:54;57.50;;;37.38;;
80272;SDS011;69574;45.328;9.598;2023-11-21T01:18:21;60.40;;;39.53;;
80272;SDS011;69574;45.328;9.598;2023-11-21T01:20:46;57.17;;;38.17;;
80272;SDS011;69574;45.328;9.598;2023-11-21T01:23:12;56.33;;;36.58;;
80272;SDS011;69574;45.328;9.598;2023-11-21T01:25:38;53.15;;;36.13;;
80272;SDS011;69574;45.328;9.598;2023-11-21T01:28:03;55.08;;;36.60;;
80272;SDS011;69574;45.328;9.598;2023-11-21T01:30:31;62.35;;;38.45;;
80272;SDS011;69574;45.328;9.598;2023-11-21T01:32:57;58.67;;;38.10;;
80272;SDS011;69574;45.328;9.598;2023-11-21T01:35:23;59.10;;;39.15;;
80272;SDS011;69574;45.328;9.598;2023-11-21T01:37:49;57.63;;;35.92;;
80272;SDS011;69574;45.328;9.598;2023-11-21T01:40:14;60.42;;;38.85;;
80272;SDS011;69574;45.328;9.598;2023-11-21T01:42:40;57.35;;;37.03;;
80272;SDS011;69574;45.328;9.598;2023-11-21T01:45:07;54.35;;;35.80;;
80272;SDS011;69574;45.328;9.598;2023-11-21T01:47:34;54.80;;;35.83;;
80272;SDS011;69574;45.328;9.598;2023-11-21T01:50:01;57.45;;;36.85;;
80272;SDS011;69574;45.328;9.598;2023-11-21T01:52:27;54.58;;;36.35;;
80272;SDS011;69574;45.328;9.598;2023-11-21T01:54:53;59.88;;;36.13;;
80272;SDS011;69574;45.328;9.598;2023-11-21T01:57:19;56.17;;;35.42;;
80272;SDS011;69574;45.328;9.598;2023-11-21T01:59:45;51.40;;;34.35;;
80272;SDS011;69574;45.328;9.598;2023-11-21T02:02:13;55.42;;;35.33;;
80272;SDS011;69574;45.328;9.598;2023-11-21T02:04:40;57.75;;;36.47;;
80272;SDS011;69574;45.328;9.598;2023-11-21T02:07:06;55.40;;;35.65;;
80272;SDS011;69574;45.328;9.598;2023-11-21T02:09:32;52.95;;;34.28;;
80272;SDS011;69574;45.328;9.598;2023-11-21T02:11:59;56.67;;;35.38;;
80272;SDS011;69574;45.328;9.598;2023-11-21T02:14:25;55.42;;;34.67;;
80272;SDS011;69574;45.328;9.598;2023-11-21T02:16:51;57.22;;;35.35;;
80272;SDS011;69574;45.328;9.598;2023-11-21T02:19:18;51.15;;;34.65;;
80272;SDS011;69574;45.328;9.598;2023-11-21T02:21:56;55.35;;;32.63;;
80272;SDS011;69574;45.328;9.598;2023-11-21T02:24:33;52.78;;;33.20;;
80272;SDS011;69574;45.328;9.598;2023-11-21T02:26:58;56.03;;;33.25;;
80272;SDS011;69574;45.328;9.598;2023-11-21T02:30:39;52.55;;;34.30;;
80272;SDS011;69574;45.328;9.598;2023-11-21T02:32:24;55.35;;;32.13;;
80272;SDS011;69574;45.328;9.598;2023-11-21T02:34:51;50.90;;;31.70;;
80272;SDS011;69574;45.328;9.598;2023-11-21T02:37:17;46.33;;;30.95;;
80272;SDS011;69574;45.328;9.598;2023-11-21T02:39:44;51.72;;;30.83;;
80272;SDS011;69574;45.328;9.598;2023-11-21T02:42:10;49.75;;;32.50;;
80272;SDS011;69574;45.328;9.598;2023-11-21T02:44:35;53.05;;;33.47;;
80272;SDS011;69574;45.328;9.598;2023-11-21T02:47:01;56.35;;;32.42;;
80272;SDS011;69574;45.328;9.598;2023-11-21T02:49:27;49.00;;;31.10;;
80272;SDS011;69574;45.328;9.598;2023-11-21T02:51:56;50.75;;;32.15;;
80272;SDS011;69574;45.328;9.598;2023-11-21T02:54:21;51.38;;;32.25;;
80272;SDS011;69574;45.328;9.598;2023-11-21T02:56:49;55.65;;;32.40;;
80272;SDS011;69574;45.328;9.598;2023-11-21T02:59:15;48.88;;;31.58;;
80272;SDS011;69574;45.328;9.598;2023-11-21T03:01:41;52.42;;;32.63;;
80272;SDS011;69574;45.328;9.598;2023-11-21T03:04:06;49.15;;;30.95;;
80272;SDS011;69574;45.328;9.598;2023-11-21T03:06:32;50.35;;;31.88;;
80272;SDS011;69574;45.328;9.598;2023-11-21T03:08:58;53.30;;;32.42;;
80272;SDS011;69574;45.328;9.598;2023-11-21T03:11:23;51.45;;;32.28;;
80272;SDS011;69574;45.328;9.598;2023-11-21T03:13:50;51.58;;;31.77;;
80272;SDS011;69574;45.328;9.598;2023-11-21T03:16:16;53.08;;;31.63;;
80272;SDS011;69574;45.328;9.598;2023-11-21T03:18:42;53.33;;;32.70;;
80272;SDS011;69574;45.328;9.598;2023-11-21T03:21:08;53.65;;;32.10;;
80272;SDS011;69574;45.328;9.598;2023-11-21T03:23:34;52.45;;;31.75;;
80272;SDS011;69574;45.328;9.598;2023-11-21T03:26:00;51.50;;;32.35;;
80272;SDS011;69574;45.328;9.598;2023-11-21T03:28:25;53.72;;;31.65;;
80272;SDS011;69574;45.328;9.598;2023-11-21T03:30:53;48.63;;;31.85;;
80272;SDS011;69574;45.328;9.598;2023-11-21T03:33:19;47.75;;;29.75;;
80272;SDS011;69574;45.328;9.598;2023-11-21T03:35:45;46.28;;;29.40;;
80272;SDS011;69574;45.328;9.598;2023-11-21T03:38:11;47.97;;;29.58;;
80272;SDS011;69574;45.328;9.598;2023-11-21T03:40:37;50.95;;;31.27;;
80272;SDS011;69574;45.328;9.598;2023-11-21T03:43:04;52.05;;;30.23;;
80272;SDS011;69574;45.328;9.598;2023-11-21T03:45:31;49.25;;;30.30;;
80272;SDS011;69574;45.328;9.598;2023-11-21T03:47:58;53.33;;;32.10;;
80272;SDS011;69574;45.328;9.598;2023-11-21T03:50:26;60.95;;;32.97;;
80272;SDS011;69574;45.328;9.598;2023-11-21T03:52:52;54.70;;;31.90;;
80272;SDS011;69574;45.328;9.598;2023-11-21T03:55:18;50.15;;;30.98;;
80272;SDS011;69574;45.328;9.598;2023-11-21T03:57:44;51.03;;;30.70;;
80272;SDS011;69574;45.328;9.598;2023-11-21T04:00:10;55.63;;;32.28;;
80272;SDS011;69574;45.328;9.598;2023-11-21T04:02:36;51.67;;;31.60;;
80272;SDS011;69574;45.328;9.598;2023-11-21T04:05:03;51.97;;;32.05;;
80272;SDS011;69574;45.328;9.598;2023-11-21T04:07:30;50.92;;;30.67;;
80272;SDS011;69574;45.328;9.598;2023-11-21T04:09:55;52.40;;;32.72;;
80272;SDS011;69574;45.328;9.598;2023-11-21T04:12:22;55.55;;;33.13;;
80272;SDS011;69574;45.328;9.598;2023-11-21T04:14:47;52.13;;;32.45;;
80272;SDS011;69574;45.328;9.598;2023-11-21T04:17:13;49.75;;;32.00;;
80272;SDS011;69574;45.328;9.598;2023-11-21T04:19:42;52.63;;;32.00;;
80272;SDS011;69574;45.328;9.598;2023-11-21T04:22:10;56.85;;;34.05;;
80272;SDS011;69574;45.328;9.598;2023-11-21T04:24:35;52.03;;;30.67;;
80272;SDS011;69574;45.328;9.598;2023-11-21T04:27:01;52.75;;;32.30;;
80272;SDS011;69574;45.328;9.598;2023-11-21T04:29:28;53.92;;;32.08;;
80272;SDS011;69574;45.328;9.598;2023-11-21T04:31:54;50.47;;;31.52;;
80272;SDS011;69574;45.328;9.598;2023-11-21T04:34:19;52.38;;;33.60;;
80272;SDS011;69574;45.328;9.598;2023-11-21T04:36:45;52.83;;;32.13;;
80272;SDS011;69574;45.328;9.598;2023-11-21T04:39:13;55.85;;;33.30;;
80272;SDS011;69574;45.328;9.598;2023-11-21T04:41:38;52.15;;;32.78;;
80272;SDS011;69574;45.328;9.598;2023-11-21T04:44:08;54.65;;;32.70;;
80272;SDS011;69574;45.328;9.598;2023-11-21T04:46:33;50.15;;;32.08;;
80272;SDS011;69574;45.328;9.598;2023-11-21T04:48:59;52.13;;;33.20;;
80272;SDS011;69574;45.328;9.598;2023-11-21T04:51:25;54.22;;;34.35;;
80272;SDS011;69574;45.328;9.598;2023-11-21T04:53:51;50.17;;;31.58;;
80272;SDS011;69574;45.328;9.598;2023-11-21T04:56:18;53.92;;;33.28;;
80272;SDS011;69574;45.328;9.598;2023-11-21T04:58:43;55.78;;;33.47;;
80272;SDS011;69574;45.328;9.598;2023-11-21T05:01:09;60.25;;;36.72;;
80272;SDS011;69574;45.328;9.598;2023-11-21T05:03:35;56.30;;;34.88;;
80272;SDS011;69574;45.328;9.598;2023-11-21T05:06:04;55.47;;;33.80;;
80272;SDS011;69574;45.328;9.598;2023-11-21T05:08:30;59.42;;;35.33;;
80272;SDS011;69574;45.328;9.598;2023-11-21T05:10:56;57.70;;;34.55;;
80272;SDS011;69574;45.328;9.598;2023-11-21T05:13:23;55.95;;;34.75;;
80272;SDS011;69574;45.328;9.598;2023-11-21T05:15:52;50.95;;;32.08;;
80272;SDS011;69574;45.328;9.598;2023-11-21T05:18:18;56.90;;;34.60;;
80272;SDS011;69574;45.328;9.598;2023-11-21T05:20:44;51.38;;;33.50;;
80272;SDS011;69574;45.328;9.598;2023-11-21T05:23:09;57.95;;;33.42;;
80272;SDS011;69574;45.328;9.598;2023-11-21T05:25:35;53.00;;;31.75;;
80272;SDS011;69574;45.328;9.598;2023-11-21T05:28:03;53.40;;;33.33;;
80272;SDS011;69574;45.328;9.598;2023-11-21T05:30:30;49.30;;;32.85;;
80272;SDS011;69574;45.328;9.598;2023-11-21T05:32:56;55.58;;;34.28;;
80272;SDS011;69574;45.328;9.598;2023-11-21T05:35:22;51.85;;;33.88;;
80272;SDS011;69574;45.328;9.598;2023-11-21T05:37:48;53.63;;;32.88;;
80272;SDS011;69574;45.328;9.598;2023-11-21T05:40:13;53.55;;;33.10;;
80272;SDS011;69574;45.328;9.598;2023-11-21T05:42:39;56.95;;;34.47;;
80272;SDS011;69574;45.328;9.598;2023-11-21T05:45:09;53.85;;;34.30;;
80272;SDS011;69574;45.328;9.598;2023-11-21T05:47:38;60.58;;;34.75;;
80272;SDS011;69574;45.328;9.598;2023-11-21T05:50:05;51.95;;;32.03;;
80272;SDS011;69574;45.328;9.598;2023-11-21T05:52:31;51.13;;;32.85;;
80272;SDS011;69574;45.328;9.598;2023-11-21T05:57:23;49.43;;;32.43;;
80272;SDS011;69574;45.328;9.598;2023-11-21T05:59:48;52.00;;;33.53;;
80272;SDS011;69574;45.328;9.598;2023-11-21T06:02:14;55.15;;;34.55;;
80272;SDS011;69574;45.328;9.598;2023-11-21T06:04:41;57.90;;;35.13;;
80272;SDS011;69574;45.328;9.598;2023-11-21T06:07:07;53.15;;;34.00;;
80272;SDS011;69574;45.328;9.598;2023-11-21T06:09:33;55.60;;;34.33;;
80272;SDS011;69574;45.328;9.598;2023-11-21T06:12:00;54.72;;;33.60;;
80272;SDS011;69574;45.328;9.598;2023-11-21T06:14:25;53.67;;;33.85;;
80272;SDS011;69574;45.328;9.598;2023-11-21T06:16:51;54.58;;;32.88;;
80272;SDS011;69574;45.328;9.598;2023-11-21T06:19:17;63.05;;;36.85;;
80272;SDS011;69574;45.328;9.598;2023-11-21T06:21:46;52.10;;;34.50;;
80272;SDS011;69574;45.328;9.598;2023-11-21T06:24:12;58.35;;;33.47;;
80272;SDS011;69574;45.328;9.598;2023-11-21T06:26:40;54.90;;;33.30;;
80272;SDS011;69574;45.328;9.598;2023-11-21T06:29:06;56.30;;;32.47;;
80272;SDS011;69574;45.328;9.598;2023-11-21T06:31:32;59.22;;;34.83;;
80272;SDS011;69574;45.328;9.598;2023-11-21T06:33:58;57.55;;;33.33;;
80272;SDS011;69574;45.328;9.598;2023-11-21T06:38:51;61.33;;;32.00;;
80272;SDS011;69574;45.328;9.598;2023-11-21T06:41:17;56.67;;;34.58;;
80272;SDS011;69574;45.328;9.598;2023-11-21T06:43:43;63.53;;;33.38;;
80272;SDS011;69574;45.328;9.598;2023-11-21T06:46:11;58.30;;;33.70;;
80272;SDS011;69574;45.328;9.598;2023-11-21T06:48:40;54.15;;;32.47;;
80272;SDS011;69574;45.328;9.598;2023-11-21T06:51:06;52.80;;;32.33;;
80272;SDS011;69574;45.328;9.598;2023-11-21T06:53:32;51.78;;;32.90;;
80272;SDS011;69574;45.328;9.598;2023-11-21T06:55:59;62.25;;;33.90;;
80272;SDS011;69574;45.328;9.598;2023-11-21T06:58:25;53.17;;;31.23;;
80272;SDS011;69574;45.328;9.598;2023-11-21T07:00:50;54.90;;;31.25;;
80272;SDS011;69574;45.328;9.598;2023-11-21T07:05:44;52.17;;;30.08;;
80272;SDS011;69574;45.328;9.598;2023-11-21T07:08:10;55.28;;;30.77;;
80272;SDS011;69574;45.328;9.598;2023-11-21T07:10:36;51.80;;;29.40;;
80272;SDS011;69574;45.328;9.598;2023-11-21T07:13:03;51.03;;;31.08;;
80272;SDS011;69574;45.328;9.598;2023-11-21T07:15:29;51.35;;;29.02;;
80272;SDS011;69574;45.328;9.598;2023-11-21T07:17:55;50.30;;;30.13;;
80272;SDS011;69574;45.328;9.598;2023-11-21T07:20:20;49.22;;;29.02;;
80272;SDS011;69574;45.328;9.598;2023-11-21T07:22:46;51.40;;;29.15;;
80272;SDS011;69574;45.328;9.598;2023-11-21T07:25:12;49.95;;;30.17;;
80272;SDS011;69574;45.328;9.598;2023-11-21T07:27:38;52.85;;;30.63;;
80272;SDS011;69574;45.328;9.598;2023-11-21T07:30:06;50.78;;;30.27;;
80272;SDS011;69574;45.328;9.598;2023-11-21T07:32:33;50.40;;;28.75;;
80272;SDS011;69574;45.328;9.598;2023-11-21T07:34:59;52.83;;;31.30;;
80272;SDS011;69574;45.328;9.598;2023-11-21T07:37:26;52.58;;;31.63;;
80272;SDS011;69574;45.328;9.598;2023-11-21T07:39:54;51.60;;;30.25;;
80272;SDS011;69574;45.328;9.598;2023-11-21T07:42:23;51.20;;;29.38;;
80272;SDS011;69574;45.328;9.598;2023-11-21T07:44:49;48.10;;;28.83;;
80272;SDS011;69574;45.328;9.598;2023-11-21T07:47:17;43.55;;;27.95;;
80272;SDS011;69574;45.328;9.598;2023-11-21T07:49:42;46.90;;;28.27;;
80272;SDS011;69574;45.328;9.598;2023-11-21T07:52:09;48.55;;;28.58;;
80272;SDS011;69574;45.328;9.598;2023-11-21T07:54:34;50.08;;;29.35;;
80272;SDS011;69574;45.328;9.598;2023-11-21T07:57:01;47.83;;;28.35;;
80272;SDS011;69574;45.328;9.598;2023-11-21T07:59:26;47.17;;;29.15;;
80272;SDS011;69574;45.328;9.598;2023-11-21T08:01:52;52.10;;;30.42;;
80272;SDS011;69574;45.328;9.598;2023-11-21T08:04:19;48.10;;;29.15;;
80272;SDS011;69574;45.328;9.598;2023-11-21T08:06:45;50.15;;;30.05;;
80272;SDS011;69574;45.328;9.598;2023-11-21T08:09:11;51.13;;;28.30;;
80272;SDS011;69574;45.328;9.598;2023-11-21T08:11:37;47.72;;;28.23;;
80272;SDS011;69574;45.328;9.598;2023-11-21T08:14:04;47.00;;;28.75;;
80272;SDS011;69574;45.328;9.598;2023-11-21T08:16:30;46.47;;;27.80;;
80272;SDS011;69574;45.328;9.598;2023-11-21T08:18:56;50.25;;;28.40;;
80272;SDS011;69574;45.328;9.598;2023-11-21T08:21:23;47.08;;;28.13;;
80272;SDS011;69574;45.328;9.598;2023-11-21T08:23:54;52.25;;;28.30;;
80272;SDS011;69574;45.328;9.598;2023-11-21T08:26:21;43.10;;;27.50;;
80272;SDS011;69574;45.328;9.598;2023-11-21T08:28:47;49.47;;;29.70;;
80272;SDS011;69574;45.328;9.598;2023-11-21T08:31:13;45.78;;;28.45;;
80272;SDS011;69574;45.328;9.598;2023-11-21T08:33:38;48.35;;;28.85;;
80272;SDS011;69574;45.328;9.598;2023-11-21T08:36:06;48.45;;;29.05;;
80272;SDS011;69574;45.328;9.598;2023-11-21T08:38:34;54.10;;;30.40;;
80272;SDS011;69574;45.328;9.598;2023-11-21T08:41:03;50.85;;;28.75;;
80272;SDS011;69574;45.328;9.598;2023-11-21T08:43:29;52.03;;;30.15;;
80272;SDS011;69574;45.328;9.598;2023-11-21T08:45:56;49.92;;;28.50;;
80272;SDS011;69574;45.328;9.598;2023-11-21T08:48:21;48.72;;;29.75;;
80272;SDS011;69574;45.328;9.598;2023-11-21T08:50:47;47.78;;;28.48;;
80272;SDS011;69574;45.328;9.598;2023-11-21T08:53:13;50.20;;;28.80;;
80272;SDS011;69574;45.328;9.598;2023-11-21T08:55:40;50.88;;;30.35;;
80272;SDS011;69574;45.328;9.598;2023-11-21T08:58:06;50.22;;;29.73;;
80272;SDS011;69574;45.328;9.598;2023-11-21T09:00:32;50.53;;;29.05;;
80272;SDS011;69574;45.328;9.598;2023-11-21T09:02:58;54.72;;;29.13;;
80272;SDS011;69574;45.328;9.598;2023-11-21T09:05:24;51.58;;;28.80;;
80272;SDS011;69574;45.328;9.598;2023-11-21T09:07:51;47.53;;;26.90;;
80272;SDS011;69574;45.328;9.598;2023-11-21T09:10:17;48.47;;;29.35;;
80272;SDS011;69574;45.328;9.598;2023-11-21T09:12:44;49.13;;;27.88;;
80272;SDS011;69574;45.328;9.598;2023-11-21T09:15:10;44.80;;;26.35;;
80272;SDS011;69574;45.328;9.598;2023-11-21T09:17:36;53.53;;;28.50;;
80272;SDS011;69574;45.328;9.598;2023-11-21T09:20:02;45.30;;;26.75;;
80272;SDS011;69574;45.328;9.598;2023-11-21T09:22:30;51.40;;;28.17;;
80272;SDS011;69574;45.328;9.598;2023-11-21T09:24:57;43.70;;;27.23;;
80272;SDS011;69574;45.328;9.598;2023-11-21T09:27:23;47.05;;;29.08;;
80272;SDS011;69574;45.328;9.598;2023-11-21T09:29:50;55.40;;;30.73;;
80272;SDS011;69574;45.328;9.598;2023-11-21T09:32:16;49.58;;;29.05;;
80272;SDS011;69574;45.328;9.598;2023-11-21T09:34:43;48.63;;;28.00;;
80272;SDS011;69574;45.328;9.598;2023-11-21T09:37:09;50.33;;;28.42;;
80272;SDS011;69574;45.328;9.598;2023-11-21T09:39:35;48.17;;;27.40;;
80272;SDS011;69574;45.328;9.598;2023-11-21T09:42:03;47.97;;;27.67;;
80272;SDS011;69574;45.328;9.598;2023-11-21T09:44:31;52.08;;;28.00;;
80272;SDS011;69574;45.328;9.598;2023-11-21T09:47:00;48.00;;;27.83;;
80272;SDS011;69574;45.328;9.598;2023-11-21T09:49:27;51.38;;;28.17;;
80272;SDS011;69574;45.328;9.598;2023-11-21T09:51:54;49.97;;;27.40;;
80272;SDS011;69574;45.328;9.598;2023-11-21T09:54:21;50.55;;;28.17;;
80272;SDS011;69574;45.328;9.598;2023-11-21T09:56:47;46.60;;;27.55;;
80272;SDS011;69574;45.328;9.598;2023-11-21T09:59:14;48.45;;;26.85;;
80272;SDS011;69574;45.328;9.598;2023-11-21T10:01:41;46.90;;;26.50;;
80272;SDS011;69574;45.328;9.598;2023-11-21T10:04:09;46.20;;;27.60;;
80272;SDS011;69574;45.328;9.598;2023-11-21T10:06:37;41.80;;;27.17;;
80272;SDS011;69574;45.328;9.598;2023-11-21T10:11:29;41.07;;;25.20;;
80272;SDS011;69574;45.328;9.598;2023-11-21T10:13:55;48.63;;;28.42;;
80272;SDS011;69574;45.328;9.598;2023-11-21T10:16:24;47.60;;;26.88;;
80272;SDS011;69574;45.328;9.598;2023-11-21T10:21:17;46.60;;;26.93;;
80272;SDS011;69574;45.328;9.598;2023-11-21T10:23:44;46.53;;;27.10;;
80272;SDS011;69574;45.328;9.598;2023-11-21T10:26:10;50.05;;;29.90;;
80272;SDS011;69574;45.328;9.598;2023-11-21T10:28:41;47.85;;;29.60;;
80272;SDS011;69574;45.328;9.598;2023-11-21T10:31:07;47.55;;;28.73;;
80272;SDS011;69574;45.328;9.598;2023-11-21T10:33:33;43.33;;;27.40;;
80272;SDS011;69574;45.328;9.598;2023-11-21T10:35:58;45.88;;;28.10;;
80272;SDS011;69574;45.328;9.598;2023-11-21T10:38:28;47.17;;;27.65;;
80272;SDS011;69574;45.328;9.598;2023-11-21T10:40:55;44.75;;;26.70;;
80272;SDS011;69574;45.328;9.598;2023-11-21T10:43:23;44.50;;;27.60;;
80272;SDS011;69574;45.328;9.598;2023-11-21T10:45:49;48.03;;;27.10;;
80272;SDS011;69574;45.328;9.598;2023-11-21T10:48:15;52.33;;;27.88;;
80272;SDS011;69574;45.328;9.598;2023-11-21T10:50:41;47.88;;;26.30;;
80272;SDS011;69574;45.328;9.598;2023-11-21T10:53:07;44.45;;;25.58;;
80272;SDS011;69574;45.328;9.598;2023-11-21T10:55:37;48.15;;;26.65;;
80272;SDS011;69574;45.328;9.598;2023-11-21T10:58:03;44.28;;;25.30;;
80272;SDS011;69574;45.328;9.598;2023-11-21T11:00:31;44.97;;;26.80;;
80272;SDS011;69574;45.328;9.598;2023-11-21T11:02:57;45.85;;;26.27;;
80272;SDS011;69574;45.328;9.598;2023-11-21T11:05:26;45.20;;;26.88;;
80272;SDS011;69574;45.328;9.598;2023-11-21T11:07:52;44.00;;;26.10;;
80272;SDS011;69574;45.328;9.598;2023-11-21T11:10:20;48.28;;;26.60;;
80272;SDS011;69574;45.328;9.598;2023-11-21T11:12:49;44.75;;;26.33;;
80272;SDS011;69574;45.328;9.598;2023-11-21T11:15:15;44.65;;;27.05;;
80272;SDS011;69574;45.328;9.598;2023-11-21T11:17:41;47.35;;;27.08;;
80272;SDS011;69574;45.328;9.598;2023-11-21T11:20:07;47.53;;;29.13;;
80272;SDS011;69574;45.328;9.598;2023-11-21T11:22:37;50.03;;;28.33;;
80272;SDS011;69574;45.328;9.598;2023-11-21T11:25:06;43.28;;;25.95;;
80272;SDS011;69574;45.328;9.598;2023-11-21T11:27:40;45.67;;;26.63;;
80272;SDS011;69574;45.328;9.598;2023-11-21T11:30:15;49.20;;;27.27;;
80272;SDS011;69574;45.328;9.598;2023-11-21T11:32:43;48.38;;;29.95;;
80272;SDS011;69574;45.328;9.598;2023-11-21T11:35:14;50.88;;;28.70;;
80272;SDS011;69574;45.328;9.598;2023-11-21T11:37:42;52.28;;;29.27;;
80272;SDS011;69574;45.328;9.598;2023-11-21T11:40:10;50.60;;;30.52;;
80272;SDS011;69574;45.328;9.598;2023-11-21T11:42:36;49.17;;;28.90;;
80272;SDS011;69574;45.328;9.598;2023-11-21T11:45:02;48.28;;;27.63;;
80272;SDS011;69574;45.328;9.598;2023-11-21T11:47:44;50.28;;;28.73;;
80272;SDS011;69574;45.328;9.598;2023-11-21T11:50:10;50.55;;;28.33;;
80272;SDS011;69574;45.328;9.598;2023-11-21T11:52:42;50.17;;;29.65;;
80272;SDS011;69574;45.328;9.598;2023-11-21T11:55:08;46.47;;;27.38;;
80272;SDS011;69574;45.328;9.598;2023-11-21T11:57:37;50.92;;;28.20;;
80272;SDS011;69574;45.328;9.598;2023-11-21T12:00:10;51.75;;;29.00;;
80272;SDS011;69574;45.328;9.598;2023-11-21T12:02:37;50.15;;;29.23;;
80272;SDS011;69574;45.328;9.598;2023-11-21T12:05:08;60.60;;;29.85;;
80272;SDS011;69574;45.328;9.598;2023-11-21T12:10:16;51.30;;;30.30;;
80272;SDS011;69574;45.328;9.598;2023-11-21T12:12:48;52.42;;;30.52;;
80272;SDS011;69574;45.328;9.598;2023-11-21T12:15:14;51.65;;;30.65;;
80272;SDS011;69574;45.328;9.598;2023-11-21T12:17:40;52.20;;;30.95;;
80272;SDS011;69574;45.328;9.598;2023-11-21T12:20:09;51.97;;;29.50;;
80272;SDS011;69574;45.328;9.598;2023-11-21T12:22:42;51.30;;;29.83;;
80272;SDS011;69574;45.328;9.598;2023-11-21T12:25:08;51.15;;;28.45;;
80272;SDS011;69574;45.328;9.598;2023-11-21T12:27:34;59.85;;;30.15;;
80272;SDS011;69574;45.328;9.598;2023-11-21T12:30:00;59.63;;;31.23;;
80272;SDS011;69574;45.328;9.598;2023-11-21T12:32:26;52.55;;;29.25;;
80272;SDS011;69574;45.328;9.598;2023-11-21T12:34:51;58.67;;;32.33;;
80272;SDS011;69574;45.328;9.598;2023-11-21T12:37:19;51.70;;;28.55;;
80272;SDS011;69574;45.328;9.598;2023-11-21T12:39:45;52.80;;;31.02;;
80272;SDS011;69574;45.328;9.598;2023-11-21T12:42:10;53.47;;;30.40;;
80272;SDS011;69574;45.328;9.598;2023-11-21T12:44:36;52.25;;;29.85;;
80272;SDS011;69574;45.328;9.598;2023-11-21T12:47:06;51.85;;;29.58;;
80272;SDS011;69574;45.328;9.598;2023-11-21T12:49:32;51.03;;;29.27;;
80272;SDS011;69574;45.328;9.598;2023-11-21T12:51:59;57.45;;;30.35;;
80272;SDS011;69574;45.328;9.598;2023-11-21T12:54:26;57.88;;;30.38;;
80272;SDS011;69574;45.328;9.598;2023-11-21T12:56:53;52.45;;;31.00;;
80272;SDS011;69574;45.328;9.598;2023-11-21T12:59:20;53.58;;;31.40;;
80272;SDS011;69574;45.328;9.598;2023-11-21T13:01:46;57.63;;;31.15;;
80272;SDS011;69574;45.328;9.598;2023-11-21T13:04:12;58.78;;;31.90;;
80272;SDS011;69574;45.328;9.598;2023-11-21T13:06:38;56.60;;;32.30;;
80272;SDS011;69574;45.328;9.598;2023-11-21T13:09:06;55.72;;;31.42;;
80272;SDS011;69574;45.328;9.598;2023-11-21T13:11:35;57.58;;;31.70;;
80272;SDS011;69574;45.328;9.598;2023-11-21T13:14:02;57.00;;;32.95;;
80272;SDS011;69574;45.328;9.598;2023-11-21T13:16:28;58.88;;;32.08;;
80272;SDS011;69574;45.328;9.598;2023-11-21T13:21:20;58.83;;;30.77;;
80272;SDS011;69574;45.328;9.598;2023-11-21T13:23:47;60.13;;;31.10;;
80272;SDS011;69574;45.328;9.598;2023-11-21T13:26:15;60.03;;;29.95;;
80272;SDS011;69574;45.328;9.598;2023-11-21T13:28:42;118.45;;;33.70;;
80272;SDS011;69574;45.328;9.598;2023-11-21T13:31:12;64.30;;;32.83;;
80272;SDS011;69574;45.328;9.598;2023-11-21T13:33:51;62.90;;;30.88;;
80272;SDS011;69574;45.328;9.598;2023-11-21T13:36:21;56.45;;;30.15;;
80272;SDS011;69574;45.328;9.598;2023-11-21T13:38:48;60.88;;;31.92;;
80272;SDS011;69574;45.328;9.598;2023-11-21T13:41:14;56.88;;;32.63;;
80272;SDS011;69574;45.328;9.598;2023-11-21T13:43:40;59.30;;;33.65;;
80272;SDS011;69574;45.328;9.598;2023-11-21T13:46:10;65.00;;;35.78;;
80272;SDS011;69574;45.328;9.598;2023-11-21T13:48:42;59.53;;;33.08;;
80272;SDS011;69574;45.328;9.598;2023-11-21T13:51:08;62.13;;;33.78;;
80272;SDS011;69574;45.328;9.598;2023-11-21T13:53:41;55.95;;;32.80;;
80272;SDS011;69574;45.328;9.598;2023-11-21T13:56:08;63.85;;;35.42;;
80272;SDS011;69574;45.328;9.598;2023-11-21T13:58:34;62.42;;;35.53;;
80272;SDS011;69574;45.328;9.598;2023-11-21T14:01:19;61.40;;;34.47;;
80272;SDS011;69574;45.328;9.598;2023-11-21T14:03:57;58.65;;;35.08;;
80272;SDS011;69574;45.328;9.598;2023-11-21T14:06:28;59.85;;;34.05;;
80272;SDS011;69574;45.328;9.598;2023-11-21T14:08:59;61.45;;;35.08;;
80272;SDS011;69574;45.328;9.598;2023-11-21T14:11:30;65.25;;;35.00;;
80272;SDS011;69574;45.328;9.598;2023-11-21T14:13:55;61.20;;;33.80;;
80272;SDS011;69574;45.328;9.598;2023-11-21T14:16:23;61.70;;;34.20;;
80272;SDS011;69574;45.328;9.598;2023-11-21T14:18:48;58.83;;;34.65;;
80272;SDS011;69574;45.328;9.598;2023-11-21T14:21:30;66.47;;;36.92;;
80272;SDS011;69574;45.328;9.598;2023-11-21T14:23:57;62.20;;;36.20;;
80272;SDS011;69574;45.328;9.598;2023-11-21T14:26:23;64.28;;;36.50;;
80272;SDS011;69574;45.328;9.598;2023-11-21T14:28:50;60.25;;;35.30;;
80272;SDS011;69574;45.328;9.598;2023-11-21T14:31:16;55.67;;;36.50;;
80272;SDS011;69574;45.328;9.598;2023-11-21T14:33:43;60.85;;;35.38;;
80272;SDS011;69574;45.328;9.598;2023-11-21T14:36:09;61.03;;;36.67;;